ESOW/VST METAR and TAF weather

Enter ICAO airport designator
Station Type Date Time Source
ESOW METAR 2018/01/21 12:20 UTC NOAA

ESOW 211220Z 16002KT 0200 R01/0450N R19/0400N FZFG NSC M11/M13 Q1016 R19/910171


Station Type Date Time Source
ESOW Decoded METAR 2018/01/21 12:20 UTC NOAA

Vasteras / Hasslo, Sweden (ESOW) 59-35N 016-38E 31M
Jan 21, 2018 - 07:20 AM EST / 2018.01.21 1220 UTC
Wind: from the SSE (160 degrees) at 2 MPH (2 KT):0
Visibility: less than 1 mile:0
Weather: freezing fog
Temperature: 12 F (-11 C)
Dew Point: 8 F (-13 C)
Relative Humidity: 85%
Pressure (altimeter): 30.00 in. Hg (1016 hPa)
ob: ESOW 211220Z 16002KT 0200 R01/0450N R19/0400N FZFG NSC M11/M13 Q1016 R19/910171
cycle: 12

Station Type Date Time Source
ESOW TAF 2016/10/26 04:36 UTC NOAA

TAF TAF ESOW 260330Z 2604/2624 VRB02KT CAVOK PROB40 2604/2607 1000 BCFG


Example: see airport list